sensor_id;sensor_type;location;lat;lon;timestamp;pressure;altitude;pressure_sealevel;temperature;humidity
74615;BME280;63121;51.458;-0.110;2022-09-01T00:01:11;102125.53;;;16.81;69.13
74615;BME280;63121;51.458;-0.110;2022-09-01T00:03:45;102113.69;;;16.75;69.07
74615;BME280;63121;51.458;-0.110;2022-09-01T00:06:16;102115.72;;;16.73;69.49
74615;BME280;63121;51.458;-0.110;2022-09-01T00:08:50;102099.88;;;16.63;70.03
74615;BME280;63121;51.458;-0.110;2022-09-01T00:11:16;102114.75;;;16.66;69.61
74615;BME280;63121;51.458;-0.110;2022-09-01T00:13:41;102101.53;;;16.64;70.17
74615;BME280;63121;51.458;-0.110;2022-09-01T00:16:07;102104.19;;;16.73;69.46
74615;BME280;63121;51.458;-0.110;2022-09-01T00:18:33;102109.19;;;16.76;69.84
74615;BME280;63121;51.458;-0.110;2022-09-01T00:21:00;102107.13;;;16.77;70.11
74615;BME280;63121;51.458;-0.110;2022-09-01T00:23:26;102100.97;;;16.77;69.81
74615;BME280;63121;51.458;-0.110;2022-09-01T00:25:52;102108.06;;;16.85;69.25
74615;BME280;63121;51.458;-0.110;2022-09-01T00:28:18;102097.34;;;16.85;69.27
74615;BME280;63121;51.458;-0.110;2022-09-01T00:30:44;102104.06;;;16.89;69.79
74615;BME280;63121;51.458;-0.110;2022-09-01T00:33:09;102101.41;;;16.81;69.31
74615;BME280;63121;51.458;-0.110;2022-09-01T00:35:35;102099.28;;;16.76;69.95
74615;BME280;63121;51.458;-0.110;2022-09-01T00:38:00;102096.66;;;16.68;70.45
74615;BME280;63121;51.458;-0.110;2022-09-01T00:40:25;102090.00;;;16.64;70.14
74615;BME280;63121;51.458;-0.110;2022-09-01T00:42:51;102088.31;;;16.63;70.16
74615;BME280;63121;51.458;-0.110;2022-09-01T00:45:18;102095.38;;;16.64;70.69
74615;BME280;63121;51.458;-0.110;2022-09-01T00:47:45;102096.84;;;16.66;70.86
74615;BME280;63121;51.458;-0.110;2022-09-01T00:50:12;102093.69;;;16.63;70.55
74615;BME280;63121;51.458;-0.110;2022-09-01T00:52:42;102092.50;;;16.65;70.43
74615;BME280;63121;51.458;-0.110;2022-09-01T00:55:17;102095.81;;;16.67;70.43
74615;BME280;63121;51.458;-0.110;2022-09-01T00:57:45;102082.78;;;16.64;71.13
74615;BME280;63121;51.458;-0.110;2022-09-01T01:00:18;102097.97;;;16.72;70.59
74615;BME280;63121;51.458;-0.110;2022-09-01T01:02:46;102090.06;;;16.79;70.26
74615;BME280;63121;51.458;-0.110;2022-09-01T01:05:12;102087.75;;;16.76;70.72
74615;BME280;63121;51.458;-0.110;2022-09-01T01:07:39;102089.56;;;16.75;70.85
74615;BME280;63121;51.458;-0.110;2022-09-01T01:10:07;102091.75;;;16.71;71.14
74615;BME280;63121;51.458;-0.110;2022-09-01T01:12:34;102079.75;;;16.67;70.86
74615;BME280;63121;51.458;-0.110;2022-09-01T01:15:06;102080.78;;;16.66;70.86
74615;BME280;63121;51.458;-0.110;2022-09-01T01:17:32;102072.72;;;16.66;70.87
74615;BME280;63121;51.458;-0.110;2022-09-01T01:19:57;102072.66;;;16.74;70.98
74615;BME280;63121;51.458;-0.110;2022-09-01T01:28:25;102065.72;;;16.65;71.83
74615;BME280;63121;51.458;-0.110;2022-09-01T01:31:03;102068.63;;;16.79;70.93
74615;BME280;63121;51.458;-0.110;2022-09-01T01:33:45;102067.97;;;16.77;70.99
74615;BME280;63121;51.458;-0.110;2022-09-01T01:36:14;102058.19;;;16.84;71.36
74615;BME280;63121;51.458;-0.110;2022-09-01T01:38:44;102054.66;;;16.83;70.57
74615;BME280;63121;51.458;-0.110;2022-09-01T01:41:11;102064.19;;;16.86;70.86
74615;BME280;63121;51.458;-0.110;2022-09-01T01:43:38;102059.38;;;16.81;70.92
74615;BME280;63121;51.458;-0.110;2022-09-01T01:46:05;102057.81;;;16.87;70.76
74615;BME280;63121;51.458;-0.110;2022-09-01T01:48:33;102059.03;;;16.84;70.96
74615;BME280;63121;51.458;-0.110;2022-09-01T01:51:01;102059.38;;;16.81;71.54
74615;BME280;63121;51.458;-0.110;2022-09-01T01:53:29;102057.22;;;16.77;71.30
74615;BME280;63121;51.458;-0.110;2022-09-01T01:55:55;102058.09;;;16.77;71.94
74615;BME280;63121;51.458;-0.110;2022-09-01T01:58:21;102056.53;;;16.83;71.64
74615;BME280;63121;51.458;-0.110;2022-09-01T02:00:50;102049.09;;;16.85;71.32
74615;BME280;63121;51.458;-0.110;2022-09-01T02:03:18;102052.81;;;16.84;71.77
74615;BME280;63121;51.458;-0.110;2022-09-01T02:05:49;102048.13;;;16.86;71.66
74615;BME280;63121;51.458;-0.110;2022-09-01T02:08:16;102052.44;;;16.87;71.30
74615;BME280;63121;51.458;-0.110;2022-09-01T02:10:48;102044.72;;;16.92;71.50
74615;BME280;63121;51.458;-0.110;2022-09-01T02:13:17;102044.81;;;16.98;71.67
74615;BME280;63121;51.458;-0.110;2022-09-01T02:15:47;102048.03;;;16.94;71.68
74615;BME280;63121;51.458;-0.110;2022-09-01T02:18:17;102053.88;;;16.97;71.91
74615;BME280;63121;51.458;-0.110;2022-09-01T02:20:45;102043.88;;;16.91;72.16
74615;BME280;63121;51.458;-0.110;2022-09-01T02:23:12;102046.81;;;16.96;71.45
74615;BME280;63121;51.458;-0.110;2022-09-01T02:25:42;102051.72;;;16.93;71.71
74615;BME280;63121;51.458;-0.110;2022-09-01T02:28:10;102045.66;;;16.99;71.82
74615;BME280;63121;51.458;-0.110;2022-09-01T02:30:41;102045.28;;;17.02;71.44
74615;BME280;63121;51.458;-0.110;2022-09-01T02:33:06;102039.94;;;17.02;71.69
74615;BME280;63121;51.458;-0.110;2022-09-01T02:35:34;102046.94;;;17.03;71.74
74615;BME280;63121;51.458;-0.110;2022-09-01T02:38:05;102040.84;;;17.09;71.44
74615;BME280;63121;51.458;-0.110;2022-09-01T02:40:32;102036.13;;;17.11;71.74
74615;BME280;63121;51.458;-0.110;2022-09-01T02:42:59;102042.16;;;17.13;71.67
74615;BME280;63121;51.458;-0.110;2022-09-01T02:45:27;102036.41;;;17.16;71.75
74615;BME280;63121;51.458;-0.110;2022-09-01T02:47:54;102042.16;;;17.13;71.71
74615;BME280;63121;51.458;-0.110;2022-09-01T02:50:21;102035.50;;;17.09;71.98
74615;BME280;63121;51.458;-0.110;2022-09-01T02:52:48;102012.72;;;17.05;71.73
74615;BME280;63121;51.458;-0.110;2022-09-01T02:55:17;102022.72;;;17.11;72.51
74615;BME280;63121;51.458;-0.110;2022-09-01T02:57:48;102024.03;;;17.00;72.68
74615;BME280;63121;51.458;-0.110;2022-09-01T03:00:15;102017.06;;;16.91;72.82
74615;BME280;63121;51.458;-0.110;2022-09-01T03:02:54;102021.22;;;16.94;72.83
74615;BME280;63121;51.458;-0.110;2022-09-01T03:05:23;102014.56;;;16.90;73.77
74615;BME280;63121;51.458;-0.110;2022-09-01T03:07:57;102015.66;;;16.81;73.83
74615;BME280;63121;51.458;-0.110;2022-09-01T03:10:27;102011.84;;;16.75;74.32
74615;BME280;63121;51.458;-0.110;2022-09-01T03:13:10;102006.75;;;16.65;74.48
74615;BME280;63121;51.458;-0.110;2022-09-01T03:15:36;102008.13;;;16.61;74.85
74615;BME280;63121;51.458;-0.110;2022-09-01T03:18:03;102010.22;;;16.51;75.01
74615;BME280;63121;51.458;-0.110;2022-09-01T03:20:31;102015.13;;;16.48;75.50
74615;BME280;63121;51.458;-0.110;2022-09-01T03:23:01;101999.22;;;16.38;75.78
74615;BME280;63121;51.458;-0.110;2022-09-01T03:25:27;102001.09;;;16.38;76.03
74615;BME280;63121;51.458;-0.110;2022-09-01T03:27:55;102000.63;;;16.34;76.79
74615;BME280;63121;51.458;-0.110;2022-09-01T03:30:23;101990.31;;;16.23;77.10
74615;BME280;63121;51.458;-0.110;2022-09-01T03:32:48;101992.53;;;16.20;77.04
74615;BME280;63121;51.458;-0.110;2022-09-01T03:35:14;101991.53;;;16.21;77.32
74615;BME280;63121;51.458;-0.110;2022-09-01T03:37:40;101987.16;;;16.20;77.69
74615;BME280;63121;51.458;-0.110;2022-09-01T03:40:08;101993.72;;;16.17;77.11
74615;BME280;63121;51.458;-0.110;2022-09-01T03:42:35;101992.06;;;16.16;77.72
74615;BME280;63121;51.458;-0.110;2022-09-01T03:45:02;102000.09;;;16.16;77.60
74615;BME280;63121;51.458;-0.110;2022-09-01T03:47:40;101993.19;;;16.22;77.87
74615;BME280;63121;51.458;-0.110;2022-09-01T03:50:12;101999.38;;;16.22;77.67
74615;BME280;63121;51.458;-0.110;2022-09-01T03:53:03;101997.53;;;16.23;77.48
74615;BME280;63121;51.458;-0.110;2022-09-01T03:55:30;101997.06;;;16.19;78.49
74615;BME280;63121;51.458;-0.110;2022-09-01T03:58:00;101996.75;;;16.14;78.36
74615;BME280;63121;51.458;-0.110;2022-09-01T04:00:31;101990.41;;;16.15;78.41
74615;BME280;63121;51.458;-0.110;2022-09-01T04:03:00;101991.41;;;16.14;78.60
74615;BME280;63121;51.458;-0.110;2022-09-01T04:05:28;101987.72;;;16.15;78.51
74615;BME280;63121;51.458;-0.110;2022-09-01T04:07:59;101977.47;;;16.19;78.74
74615;BME280;63121;51.458;-0.110;2022-09-01T04:10:35;101974.25;;;16.23;78.42
74615;BME280;63121;51.458;-0.110;2022-09-01T04:13:02;101982.03;;;16.33;78.31
74615;BME280;63121;51.458;-0.110;2022-09-01T04:15:28;101984.84;;;16.39;77.79
74615;BME280;63121;51.458;-0.110;2022-09-01T04:17:56;101977.13;;;16.44;77.90
74615;BME280;63121;51.458;-0.110;2022-09-01T04:20:41;101972.94;;;16.42;77.76
74615;BME280;63121;51.458;-0.110;2022-09-01T04:23:24;101964.06;;;16.41;78.34
74615;BME280;63121;51.458;-0.110;2022-09-01T04:25:58;101974.13;;;16.39;78.36
74615;BME280;63121;51.458;-0.110;2022-09-01T04:28:31;101972.84;;;16.35;78.83
74615;BME280;63121;51.458;-0.110;2022-09-01T04:30:58;101974.84;;;16.33;78.71
74615;BME280;63121;51.458;-0.110;2022-09-01T04:33:25;101971.16;;;16.34;78.80
74615;BME280;63121;51.458;-0.110;2022-09-01T04:35:53;101971.16;;;16.34;78.76
74615;BME280;63121;51.458;-0.110;2022-09-01T04:38:22;101965.78;;;16.34;78.54
74615;BME280;63121;51.458;-0.110;2022-09-01T04:40:49;101968.13;;;16.37;79.09
74615;BME280;63121;51.458;-0.110;2022-09-01T04:43:15;101977.81;;;16.38;78.48
74615;BME280;63121;51.458;-0.110;2022-09-01T04:45:40;101977.19;;;16.36;78.47
74615;BME280;63121;51.458;-0.110;2022-09-01T04:48:07;101965.41;;;16.45;78.56
74615;BME280;63121;51.458;-0.110;2022-09-01T04:50:32;101967.44;;;16.43;78.79
74615;BME280;63121;51.458;-0.110;2022-09-01T04:53:00;101971.34;;;16.55;78.43
74615;BME280;63121;51.458;-0.110;2022-09-01T04:55:27;101969.25;;;16.65;78.32
74615;BME280;63121;51.458;-0.110;2022-09-01T04:57:55;101960.53;;;16.63;77.45
74615;BME280;63121;51.458;-0.110;2022-09-01T05:00:22;101965.63;;;16.58;78.38
74615;BME280;63121;51.458;-0.110;2022-09-01T05:02:49;101958.31;;;16.52;78.00
74615;BME280;63121;51.458;-0.110;2022-09-01T05:05:17;101964.97;;;16.56;78.23
74615;BME280;63121;51.458;-0.110;2022-09-01T05:07:42;101957.38;;;16.45;78.38
74615;BME280;63121;51.458;-0.110;2022-09-01T05:10:08;101963.19;;;16.49;78.51
74615;BME280;63121;51.458;-0.110;2022-09-01T05:12:33;101959.72;;;16.40;79.31
74615;BME280;63121;51.458;-0.110;2022-09-01T05:15:00;101965.44;;;16.37;79.23
74615;BME280;63121;51.458;-0.110;2022-09-01T05:17:31;101961.75;;;16.38;79.29
74615;BME280;63121;51.458;-0.110;2022-09-01T05:19:56;101962.00;;;16.29;79.59
74615;BME280;63121;51.458;-0.110;2022-09-01T05:22:22;101961.16;;;16.28;79.74
74615;BME280;63121;51.458;-0.110;2022-09-01T05:24:48;101954.28;;;16.34;79.60
74615;BME280;63121;51.458;-0.110;2022-09-01T05:27:15;101957.75;;;16.34;79.80
74615;BME280;63121;51.458;-0.110;2022-09-01T05:29:42;101957.94;;;16.33;79.47
74615;BME280;63121;51.458;-0.110;2022-09-01T05:32:09;101957.88;;;16.41;79.55
74615;BME280;63121;51.458;-0.110;2022-09-01T05:34:36;101961.53;;;16.48;79.48
74615;BME280;63121;51.458;-0.110;2022-09-01T05:37:04;101956.41;;;16.61;78.33
74615;BME280;63121;51.458;-0.110;2022-09-01T05:39:31;101959.16;;;16.67;78.42
74615;BME280;63121;51.458;-0.110;2022-09-01T05:41:58;101959.47;;;16.73;78.28
74615;BME280;63121;51.458;-0.110;2022-09-01T05:44:23;101961.78;;;16.76;77.84
74615;BME280;63121;51.458;-0.110;2022-09-01T05:46:49;101960.03;;;16.83;77.83
74615;BME280;63121;51.458;-0.110;2022-09-01T05:49:16;101957.25;;;16.91;77.21
74615;BME280;63121;51.458;-0.110;2022-09-01T05:51:46;101956.88;;;16.94;77.30
74615;BME280;63121;51.458;-0.110;2022-09-01T05:54:15;101956.69;;;16.95;77.41
74615;BME280;63121;51.458;-0.110;2022-09-01T05:56:41;101952.81;;;16.98;77.00
74615;BME280;63121;51.458;-0.110;2022-09-01T05:59:07;101953.38;;;17.08;76.61
74615;BME280;63121;51.458;-0.110;2022-09-01T06:01:35;101961.72;;;17.13;76.49
74615;BME280;63121;51.458;-0.110;2022-09-01T06:04:03;101959.28;;;17.18;76.04
74615;BME280;63121;51.458;-0.110;2022-09-01T06:06:43;101954.22;;;17.23;76.01
74615;BME280;63121;51.458;-0.110;2022-09-01T06:09:11;101953.56;;;17.21;75.80
74615;BME280;63121;51.458;-0.110;2022-09-01T06:11:38;101958.19;;;17.27;75.76
74615;BME280;63121;51.458;-0.110;2022-09-01T06:14:05;101948.72;;;17.31;74.94
74615;BME280;63121;51.458;-0.110;2022-09-01T06:16:35;101945.06;;;17.32;76.07
74615;BME280;63121;51.458;-0.110;2022-09-01T06:19:02;101946.41;;;17.28;76.27
74615;BME280;63121;51.458;-0.110;2022-09-01T06:21:29;101954.75;;;17.33;75.96
74615;BME280;63121;51.458;-0.110;2022-09-01T06:23:55;101961.22;;;17.38;75.38
74615;BME280;63121;51.458;-0.110;2022-09-01T06:26:25;101960.31;;;17.46;75.49
74615;BME280;63121;51.458;-0.110;2022-09-01T06:28:53;101959.38;;;17.53;75.19
74615;BME280;63121;51.458;-0.110;2022-09-01T06:31:26;101963.59;;;17.62;74.53
74615;BME280;63121;51.458;-0.110;2022-09-01T06:33:55;101956.03;;;17.66;74.78
74615;BME280;63121;51.458;-0.110;2022-09-01T06:36:22;101960.88;;;17.77;73.65
74615;BME280;63121;51.458;-0.110;2022-09-01T06:38:49;101954.00;;;17.89;73.43
74615;BME280;63121;51.458;-0.110;2022-09-01T06:41:16;101946.19;;;17.94;73.29
74615;BME280;63121;51.458;-0.110;2022-09-01T06:43:44;101945.44;;;18.00;72.95
74615;BME280;63121;51.458;-0.110;2022-09-01T06:46:10;101947.38;;;18.06;72.95
74615;BME280;63121;51.458;-0.110;2022-09-01T06:48:36;101943.47;;;18.08;72.43
74615;BME280;63121;51.458;-0.110;2022-09-01T06:51:04;101945.94;;;18.10;72.25
74615;BME280;63121;51.458;-0.110;2022-09-01T06:53:33;101954.72;;;18.18;71.95
74615;BME280;63121;51.458;-0.110;2022-09-01T06:55:59;101957.66;;;18.23;71.34
74615;BME280;63121;51.458;-0.110;2022-09-01T06:58:24;101953.75;;;18.26;72.18
74615;BME280;63121;51.458;-0.110;2022-09-01T07:00:50;101956.81;;;18.23;72.36
74615;BME280;63121;51.458;-0.110;2022-09-01T07:03:16;101965.16;;;18.28;72.18
74615;BME280;63121;51.458;-0.110;2022-09-01T07:05:46;101964.00;;;18.37;71.67
74615;BME280;63121;51.458;-0.110;2022-09-01T07:08:14;101964.47;;;18.40;71.59
74615;BME280;63121;51.458;-0.110;2022-09-01T07:10:45;101965.34;;;18.47;71.51
74615;BME280;63121;51.458;-0.110;2022-09-01T07:13:13;101952.19;;;18.59;70.89
74615;BME280;63121;51.458;-0.110;2022-09-01T07:15:43;101949.44;;;18.80;69.81
74615;BME280;63121;51.458;-0.110;2022-09-01T07:18:09;101954.91;;;18.93;69.64
74615;BME280;63121;51.458;-0.110;2022-09-01T07:20:39;101962.84;;;19.01;69.01
74615;BME280;63121;51.458;-0.110;2022-09-01T07:23:06;101947.78;;;19.13;68.41
74615;BME280;63121;51.458;-0.110;2022-09-01T07:25:38;101963.22;;;19.26;67.98
74615;BME280;63121;51.458;-0.110;2022-09-01T07:28:05;101952.06;;;19.29;67.88
74615;BME280;63121;51.458;-0.110;2022-09-01T07:30:30;101960.66;;;19.52;67.09
74615;BME280;63121;51.458;-0.110;2022-09-01T07:32:57;101959.22;;;19.56;66.82
74615;BME280;63121;51.458;-0.110;2022-09-01T07:35:23;101970.25;;;19.74;66.00
74615;BME280;63121;51.458;-0.110;2022-09-01T07:37:48;101968.63;;;19.92;65.40
74615;BME280;63121;51.458;-0.110;2022-09-01T07:40:17;101968.53;;;20.13;64.76
74615;BME280;63121;51.458;-0.110;2022-09-01T07:42:45;101961.22;;;20.07;64.62
74615;BME280;63121;51.458;-0.110;2022-09-01T07:45:13;101952.31;;;20.00;64.81
74615;BME280;63121;51.458;-0.110;2022-09-01T07:47:42;101953.56;;;19.98;64.85
74615;BME280;63121;51.458;-0.110;2022-09-01T07:50:10;101959.59;;;20.13;64.30
74615;BME280;63121;51.458;-0.110;2022-09-01T07:52:38;101958.75;;;20.12;64.28
74615;BME280;63121;51.458;-0.110;2022-09-01T07:55:12;101964.41;;;20.30;63.78
74615;BME280;63121;51.458;-0.110;2022-09-01T07:57:40;101951.09;;;20.35;63.52
74615;BME280;63121;51.458;-0.110;2022-09-01T08:00:08;101946.78;;;20.47;62.72
74615;BME280;63121;51.458;-0.110;2022-09-01T08:02:34;101959.00;;;20.63;62.10
74615;BME280;63121;51.458;-0.110;2022-09-01T08:05:04;101957.97;;;20.44;61.90
74615;BME280;63121;51.458;-0.110;2022-09-01T08:07:37;101965.00;;;20.32;62.78
74615;BME280;63121;51.458;-0.110;2022-09-01T08:10:04;101968.75;;;20.31;62.89
74615;BME280;63121;51.458;-0.110;2022-09-01T08:12:30;101960.03;;;20.16;63.12
74615;BME280;63121;51.458;-0.110;2022-09-01T08:14:56;101972.06;;;20.20;63.55
74615;BME280;63121;51.458;-0.110;2022-09-01T08:17:21;101963.97;;;20.27;63.07
74615;BME280;63121;51.458;-0.110;2022-09-01T08:19:47;101972.88;;;20.27;63.04
74615;BME280;63121;51.458;-0.110;2022-09-01T08:22:13;101970.81;;;20.42;62.21
74615;BME280;63121;51.458;-0.110;2022-09-01T08:24:39;101972.91;;;20.53;61.89
74615;BME280;63121;51.458;-0.110;2022-09-01T08:27:05;101965.63;;;20.67;61.63
74615;BME280;63121;51.458;-0.110;2022-09-01T08:29:30;101976.59;;;20.78;61.27
74615;BME280;63121;51.458;-0.110;2022-09-01T08:31:56;101971.22;;;20.65;61.42
74615;BME280;63121;51.458;-0.110;2022-09-01T08:34:23;101983.66;;;20.60;61.71
74615;BME280;63121;51.458;-0.110;2022-09-01T08:36:49;101970.00;;;20.48;61.70
74615;BME280;63121;51.458;-0.110;2022-09-01T08:39:14;101978.69;;;20.57;61.90
74615;BME280;63121;51.458;-0.110;2022-09-01T08:46:53;101985.75;;;20.51;61.96
74615;BME280;63121;51.458;-0.110;2022-09-01T08:49:23;101982.88;;;20.46;61.97
74615;BME280;63121;51.458;-0.110;2022-09-01T08:51:57;101984.50;;;20.54;61.70
74615;BME280;63121;51.458;-0.110;2022-09-01T08:54:41;101977.47;;;20.59;61.91
74615;BME280;63121;51.458;-0.110;2022-09-01T08:57:13;101977.06;;;20.62;61.83
74615;BME280;63121;51.458;-0.110;2022-09-01T08:59:40;101983.66;;;20.73;61.49
74615;BME280;63121;51.458;-0.110;2022-09-01T09:05:40;101968.75;;;20.96;60.37
74615;BME280;63121;51.458;-0.110;2022-09-01T09:16:34;101955.38;;;21.27;59.07
74615;BME280;63121;51.458;-0.110;2022-09-01T09:19:09;101969.69;;;21.21;59.53
74615;BME280;63121;51.458;-0.110;2022-09-01T09:21:39;101967.38;;;21.32;59.09
74615;BME280;63121;51.458;-0.110;2022-09-01T09:27:25;101966.59;;;21.24;58.81
74615;BME280;63121;51.458;-0.110;2022-09-01T09:29:56;101959.91;;;21.34;59.00
74615;BME280;63121;51.458;-0.110;2022-09-01T09:32:40;101961.59;;;21.28;58.85
74615;BME280;63121;51.458;-0.110;2022-09-01T09:35:24;101949.75;;;21.36;58.57
74615;BME280;63121;51.458;-0.110;2022-09-01T09:37:51;101954.94;;;21.31;59.05
74615;BME280;63121;51.458;-0.110;2022-09-01T09:40:25;101957.03;;;21.29;58.89
74615;BME280;63121;51.458;-0.110;2022-09-01T09:47:54;101939.97;;;21.35;58.41
74615;BME280;63121;51.458;-0.110;2022-09-01T09:52:54;101938.41;;;21.07;59.90
74615;BME280;63121;51.458;-0.110;2022-09-01T09:55:34;101942.75;;;21.08;60.67
74615;BME280;63121;51.458;-0.110;2022-09-01T09:58:01;101946.72;;;21.12;61.82
74615;BME280;63121;51.458;-0.110;2022-09-01T10:00:34;101938.63;;;21.12;61.86
74615;BME280;63121;51.458;-0.110;2022-09-01T10:03:05;101930.97;;;20.96;61.99
74615;BME280;63121;51.458;-0.110;2022-09-01T10:05:39;101944.66;;;21.08;61.40
74615;BME280;63121;51.458;-0.110;2022-09-01T10:10:53;101940.72;;;20.97;62.10
74615;BME280;63121;51.458;-0.110;2022-09-01T10:13:21;101940.28;;;21.00;63.43
74615;BME280;63121;51.458;-0.110;2022-09-01T10:15:53;101940.72;;;20.97;62.65
74615;BME280;63121;51.458;-0.110;2022-09-01T10:18:29;101942.59;;;20.84;63.19
74615;BME280;63121;51.458;-0.110;2022-09-01T10:21:00;101937.19;;;20.90;62.96
74615;BME280;63121;51.458;-0.110;2022-09-01T10:23:32;101935.09;;;20.86;62.48
74615;BME280;63121;51.458;-0.110;2022-09-01T10:26:13;101925.53;;;20.90;61.92
74615;BME280;63121;51.458;-0.110;2022-09-01T10:28:52;101931.78;;;20.97;62.28
74615;BME280;63121;51.458;-0.110;2022-09-01T10:31:19;101924.94;;;21.01;61.76
74615;BME280;63121;51.458;-0.110;2022-09-01T10:33:47;101931.16;;;21.01;61.66
74615;BME280;63121;51.458;-0.110;2022-09-01T10:36:12;101928.66;;;21.06;61.18
74615;BME280;63121;51.458;-0.110;2022-09-01T10:38:41;101935.50;;;21.15;59.83
74615;BME280;63121;51.458;-0.110;2022-09-01T10:41:07;101918.00;;;21.24;57.20
74615;BME280;63121;51.458;-0.110;2022-09-01T10:43:42;101924.56;;;21.42;55.43
74615;BME280;63121;51.458;-0.110;2022-09-01T10:48:51;101916.13;;;21.76;52.42
74615;BME280;63121;51.458;-0.110;2022-09-01T10:53:48;101907.22;;;22.00;50.83
74615;BME280;63121;51.458;-0.110;2022-09-01T10:56:39;101916.75;;;22.09;50.79
74615;BME280;63121;51.458;-0.110;2022-09-01T11:04:11;101903.47;;;22.56;48.96
74615;BME280;63121;51.458;-0.110;2022-09-01T11:09:25;101905.22;;;22.87;47.48
74615;BME280;63121;51.458;-0.110;2022-09-01T11:14:48;101883.19;;;22.83;44.30
74615;BME280;63121;51.458;-0.110;2022-09-01T11:17:15;101892.06;;;22.90;43.86
74615;BME280;63121;51.458;-0.110;2022-09-01T11:19:46;101886.72;;;22.84;43.40
74615;BME280;63121;51.458;-0.110;2022-09-01T11:24:47;101892.91;;;23.09;42.33
74615;BME280;63121;51.458;-0.110;2022-09-01T11:30:55;101881.13;;;23.51;40.74
74615;BME280;63121;51.458;-0.110;2022-09-01T11:33:39;101882.13;;;23.68;39.87
74615;BME280;63121;51.458;-0.110;2022-09-01T11:38:48;101865.63;;;23.58;39.65
74615;BME280;63121;51.458;-0.110;2022-09-01T11:41:25;101868.44;;;23.63;39.37
74615;BME280;63121;51.458;-0.110;2022-09-01T11:43:55;101864.69;;;23.64;38.94
74615;BME280;63121;51.458;-0.110;2022-09-01T11:46:26;101865.50;;;23.65;38.88
74615;BME280;63121;51.458;-0.110;2022-09-01T11:48:53;101873.84;;;23.63;38.90
74615;BME280;63121;51.458;-0.110;2022-09-01T11:51:20;101858.75;;;23.44;38.95
74615;BME280;63121;51.458;-0.110;2022-09-01T11:53:45;101870.75;;;23.48;39.17
74615;BME280;63121;51.458;-0.110;2022-09-01T11:56:16;101857.06;;;23.43;39.90
74615;BME280;63121;51.458;-0.110;2022-09-01T11:58:42;101861.56;;;23.49;39.30
74615;BME280;63121;51.458;-0.110;2022-09-01T12:01:37;101859.00;;;23.54;38.94
74615;BME280;63121;51.458;-0.110;2022-09-01T12:04:37;101853.03;;;23.64;38.99
74615;BME280;63121;51.458;-0.110;2022-09-01T12:07:10;101850.16;;;23.59;39.18
74615;BME280;63121;51.458;-0.110;2022-09-01T12:09:44;101851.06;;;23.82;39.03
74615;BME280;63121;51.458;-0.110;2022-09-01T12:12:30;101860.53;;;23.91;39.64
74615;BME280;63121;51.458;-0.110;2022-09-01T12:15:20;101843.84;;;24.06;39.08
74615;BME280;63121;51.458;-0.110;2022-09-01T12:17:46;101846.56;;;24.17;39.42
74615;BME280;63121;51.458;-0.110;2022-09-01T12:20:23;101845.13;;;24.61;38.71
74615;BME280;63121;51.458;-0.110;2022-09-01T12:22:50;101847.38;;;24.75;38.94
74615;BME280;63121;51.458;-0.110;2022-09-01T12:25:24;101838.19;;;25.16;37.58
74615;BME280;63121;51.458;-0.110;2022-09-01T12:27:51;101837.66;;;25.58;36.79
74615;BME280;63121;51.458;-0.110;2022-09-01T12:30:18;101832.13;;;26.15;35.28
74615;BME280;63121;51.458;-0.110;2022-09-01T12:32:44;101834.75;;;26.26;35.34
74615;BME280;63121;51.458;-0.110;2022-09-01T12:35:16;101822.91;;;26.54;35.41
74615;BME280;63121;51.458;-0.110;2022-09-01T12:37:44;101822.78;;;26.82;34.90
74615;BME280;63121;51.458;-0.110;2022-09-01T12:42:50;101828.59;;;26.69;34.41
74615;BME280;63121;51.458;-0.110;2022-09-01T12:45:44;101829.09;;;26.66;34.50
74615;BME280;63121;51.458;-0.110;2022-09-01T12:48:41;101827.41;;;26.81;34.49
74615;BME280;63121;51.458;-0.110;2022-09-01T12:51:24;101827.44;;;26.65;35.10
74615;BME280;63121;51.458;-0.110;2022-09-01T12:53:55;101823.91;;;26.86;34.77
74615;BME280;63121;51.458;-0.110;2022-09-01T12:56:30;101825.03;;;26.68;34.79
74615;BME280;63121;51.458;-0.110;2022-09-01T12:59:24;101827.97;;;26.62;34.87
74615;BME280;63121;51.458;-0.110;2022-09-01T13:01:51;101827.59;;;26.58;34.83
74615;BME280;63121;51.458;-0.110;2022-09-01T13:06:53;101832.81;;;26.43;35.60
74615;BME280;63121;51.458;-0.110;2022-09-01T13:09:19;101822.22;;;26.42;35.77
74615;BME280;63121;51.458;-0.110;2022-09-01T13:11:44;101825.28;;;26.29;35.83
74615;BME280;63121;51.458;-0.110;2022-09-01T13:14:14;101816.59;;;26.32;36.24
74615;BME280;63121;51.458;-0.110;2022-09-01T13:16:41;101819.91;;;26.34;35.97
74615;BME280;63121;51.458;-0.110;2022-09-01T13:19:07;101816.44;;;26.76;35.38
74615;BME280;63121;51.458;-0.110;2022-09-01T13:21:34;101814.97;;;27.12;34.99
74615;BME280;63121;51.458;-0.110;2022-09-01T13:24:00;101814.09;;;27.28;34.41
74615;BME280;63121;51.458;-0.110;2022-09-01T13:26:26;101809.50;;;27.60;33.67
74615;BME280;63121;51.458;-0.110;2022-09-01T13:28:56;101805.63;;;27.51;34.03
74615;BME280;63121;51.458;-0.110;2022-09-01T13:31:21;101796.44;;;27.62;34.20
74615;BME280;63121;51.458;-0.110;2022-09-01T13:33:47;101807.78;;;27.54;34.44
74615;BME280;63121;51.458;-0.110;2022-09-01T13:36:12;101783.81;;;27.51;34.38
74615;BME280;63121;51.458;-0.110;2022-09-01T13:38:39;101791.91;;;27.46;34.51
74615;BME280;63121;51.458;-0.110;2022-09-01T13:41:05;101788.81;;;27.96;33.24
74615;BME280;63121;51.458;-0.110;2022-09-01T13:43:30;101779.81;;;27.95;32.91
74615;BME280;63121;51.458;-0.110;2022-09-01T13:45:56;101773.50;;;27.58;33.54
74615;BME280;63121;51.458;-0.110;2022-09-01T13:48:21;101781.03;;;27.46;34.04
74615;BME280;63121;51.458;-0.110;2022-09-01T13:50:49;101776.50;;;27.30;34.29
74615;BME280;63121;51.458;-0.110;2022-09-01T13:53:15;101778.69;;;27.28;34.54
74615;BME280;63121;51.458;-0.110;2022-09-01T13:55:41;101769.09;;;27.04;34.55
74615;BME280;63121;51.458;-0.110;2022-09-01T13:58:08;101769.09;;;27.25;34.39